Rolling Hills, Wyoming
Current Conditions -  °F | °C
As of 11:34 PM on Tuesday 25 Nov 2014 (Local Time) from KCPR Reporting Station
Light Snow Light Snow  
Wind Chill: 24°   Ceiling: 1500
Heat Index: 24°   Visibility: 2.5mi
Dew Point: 22°   Wind: 0mph
Humidity: 91%   Direction: NA
Pressure: 30.14"   Gusts: NA
Location:  43.0973°N, 105.88°W
Report Text: KCPR 260634Z AUTO 00000KT 2 1/2SM -SN BR OVC015 M04/M06 A3014 RMK AO2 P0002 T10441056
Loading
Personal Weather Stations






























Interactive Weather Map New forecast layout! Learn more

10-Day Weather Forecast

Advertisements
Track Severe Weather on mobile